createdAt,value
2022-12-23T00:00:57.589Z,30.70
2022-12-23T00:03:26.168Z,28.73
2022-12-23T00:05:54.115Z,24.35
2022-12-23T00:08:22.429Z,27.88
2022-12-23T00:10:51.347Z,26.45
2022-12-23T00:13:37.047Z,27.92
2022-12-23T00:16:08.777Z,32.10
2022-12-23T00:18:37.160Z,30.08
2022-12-23T00:21:09.060Z,28.58
2022-12-23T00:23:38.571Z,30.27
2022-12-23T00:26:06.911Z,29.05
2022-12-23T00:28:34.662Z,29.27
2022-12-23T00:31:04.535Z,27.98
2022-12-23T00:33:35.856Z,31.33
2022-12-23T00:36:03.513Z,27.98
2022-12-23T00:38:48.765Z,27.65
2022-12-23T00:41:36.148Z,28.77
2022-12-23T00:44:04.451Z,27.45
2022-12-23T00:46:32.531Z,28.13
2022-12-23T00:49:18.990Z,28.38
2022-12-23T00:51:46.637Z,28.77
2022-12-23T00:54:14.351Z,31.27
2022-12-23T00:56:41.973Z,28.65
2022-12-23T00:59:09.565Z,29.85
2022-12-23T01:01:55.379Z,30.02
2022-12-23T01:04:42.964Z,26.50
2022-12-23T01:07:10.964Z,32.03
2022-12-23T01:09:38.504Z,27.20
2022-12-23T01:12:06.730Z,29.23
2022-12-23T01:14:34.520Z,27.13
2022-12-23T01:17:02.258Z,29.13
2022-12-23T01:19:31.445Z,27.08
2022-12-23T01:21:59.070Z,28.75
2022-12-23T01:24:29.095Z,30.90
2022-12-23T01:26:56.984Z,29.10
2022-12-23T01:29:24.850Z,28.35
2022-12-23T01:31:52.521Z,29.50
2022-12-23T01:34:20.197Z,25.65
2022-12-23T01:36:49.187Z,27.05
2022-12-23T01:39:16.960Z,28.50
2022-12-23T01:42:02.157Z,25.77
2022-12-23T01:45:03.858Z,28.80
2022-12-23T01:47:35.685Z,28.25
2022-12-23T01:50:09.198Z,27.02
2022-12-23T01:52:43.250Z,32.60
2022-12-23T01:55:11.836Z,27.60
2022-12-23T01:57:42.374Z,31.42
2022-12-23T02:00:30.240Z,33.45
2022-12-23T02:03:15.820Z,28.70
2022-12-23T02:05:45.573Z,35.75
2022-12-23T02:08:33.989Z,26.90
2022-12-23T02:11:22.941Z,25.95
2022-12-23T02:14:16.770Z,30.25
2022-12-23T02:16:51.712Z,29.63
2022-12-23T02:19:32.447Z,29.60
2022-12-23T02:22:22.437Z,32.25
2022-12-23T02:25:50.125Z,32.22
2022-12-23T02:28:42.328Z,42.17
2022-12-23T02:31:20.176Z,36.97
2022-12-23T02:33:59.128Z,40.60
2022-12-23T02:36:38.593Z,36.60
2022-12-23T02:39:10.587Z,36.80
2022-12-23T02:41:45.917Z,38.47
2022-12-23T02:44:22.516Z,36.15
2022-12-23T02:46:55.374Z,44.55
2022-12-23T02:49:27.367Z,39.35
2022-12-23T02:51:57.478Z,38.67
2022-12-23T02:54:30.382Z,39.95
2022-12-23T02:57:00.209Z,37.88
2022-12-23T02:59:31.461Z,42.15
2022-12-23T03:02:01.917Z,44.15
2022-12-23T03:04:29.668Z,42.05
2022-12-23T03:07:02.831Z,40.92
2022-12-23T03:09:45.997Z,40.55
2022-12-23T03:12:22.965Z,41.45
2022-12-23T03:15:00.548Z,43.10
2022-12-23T03:17:42.963Z,39.63
2022-12-23T03:20:21.905Z,40.45
2022-12-23T03:22:57.994Z,43.95
2022-12-23T03:25:32.413Z,41.28
2022-12-23T03:28:06.393Z,44.35
2022-12-23T03:30:35.275Z,39.72
2022-12-23T03:33:09.331Z,44.95
2022-12-23T03:35:41.783Z,38.53
2022-12-23T03:38:12.542Z,46.72
2022-12-23T03:40:44.614Z,43.85
2022-12-23T03:43:17.202Z,46.10
2022-12-23T03:45:48.514Z,43.25
2022-12-23T03:48:22.751Z,43.10
2022-12-23T03:50:56.796Z,38.05
2022-12-23T03:53:28.188Z,42.65
2022-12-23T03:56:00.970Z,45.50
2022-12-23T03:58:36.315Z,41.22
2022-12-23T04:01:11.014Z,41.90
2022-12-23T04:03:49.217Z,44.60
2022-12-23T04:06:21.035Z,42.13
2022-12-23T04:08:50.647Z,43.20
2022-12-23T04:11:18.255Z,46.72
2022-12-23T04:13:48.218Z,46.17
2022-12-23T04:16:16.127Z,41.88
2022-12-23T04:18:45.194Z,45.95
2022-12-23T04:21:12.849Z,46.40
2022-12-23T04:23:40.787Z,46.13
2022-12-23T04:26:08.400Z,43.85
2022-12-23T04:28:35.984Z,41.72
2022-12-23T04:31:03.734Z,48.70
2022-12-23T04:33:31.621Z,41.90
2022-12-23T04:36:01.610Z,51.83
2022-12-23T04:38:29.205Z,42.30
2022-12-23T04:40:56.821Z,48.55
2022-12-23T04:43:24.377Z,54.35
2022-12-23T04:45:52.697Z,49.42
2022-12-23T04:48:20.764Z,46.90
2022-12-23T04:50:48.355Z,47.90
2022-12-23T04:53:17.227Z,44.90
2022-12-23T04:55:44.815Z,49.88
2022-12-23T04:58:12.395Z,43.33
2022-12-23T05:00:40.279Z,45.15
2022-12-23T05:03:08.243Z,39.42
2022-12-23T05:05:36.025Z,52.47
2022-12-23T05:08:05.221Z,51.78
2022-12-23T05:10:34.229Z,50.33
2022-12-23T05:13:01.786Z,51.35
2022-12-23T05:15:29.360Z,49.42
2022-12-23T05:17:56.939Z,51.17
2022-12-23T05:20:24.489Z,50.90
2022-12-23T05:22:52.199Z,52.00
2022-12-23T05:25:19.844Z,55.15
2022-12-23T05:27:48.692Z,55.97
2022-12-23T05:30:16.515Z,61.25
2022-12-23T05:32:44.159Z,58.00
2022-12-23T05:35:11.861Z,62.83
2022-12-23T05:37:39.535Z,56.95
2022-12-23T05:40:08.163Z,52.33
2022-12-23T05:42:35.836Z,56.35
2022-12-23T05:45:06.683Z,56.72
2022-12-23T05:47:34.475Z,53.60
2022-12-23T05:50:02.114Z,51.45
2022-12-23T05:52:29.773Z,59.95
2022-12-23T05:54:57.426Z,56.15
2022-12-23T05:57:25.098Z,64.68
2022-12-23T05:59:52.664Z,55.72
2022-12-23T06:02:22.369Z,66.25
2022-12-23T06:04:50.167Z,62.28
2022-12-23T06:07:17.818Z,67.80
2022-12-23T06:09:45.343Z,62.08
2022-12-23T06:12:13.145Z,65.20
2022-12-23T06:14:40.681Z,63.92
2022-12-23T06:17:08.282Z,67.65
2022-12-23T06:19:37.299Z,66.53
2022-12-23T06:22:04.823Z,53.55
2022-12-23T06:24:32.524Z,81.88
2022-12-23T06:27:00.164Z,72.28
2022-12-23T06:29:27.830Z,87.38
2022-12-23T06:31:55.520Z,77.90
2022-12-23T06:34:24.399Z,59.63
2022-12-23T06:36:53.600Z,69.65
2022-12-23T06:39:21.198Z,54.95
2022-12-23T06:41:49.170Z,66.22
2022-12-23T06:44:25.805Z,86.28
2022-12-23T06:46:59.870Z,57.20
2022-12-23T06:49:28.293Z,62.22
2022-12-23T06:52:14.808Z,53.80
2022-12-23T06:54:43.048Z,64.25
2022-12-23T06:57:12.100Z,55.55
2022-12-23T06:59:41.685Z,55.70
2022-12-23T07:02:15.869Z,59.83
2022-12-23T07:04:46.499Z,52.50
2022-12-23T07:07:22.073Z,50.22
2022-12-23T07:09:54.398Z,49.08
2022-12-23T07:12:34.056Z,47.72
2022-12-23T07:15:05.443Z,46.92
2022-12-23T07:17:33.891Z,54.45
2022-12-23T07:20:04.044Z,53.70
2022-12-23T07:22:34.408Z,49.25
2022-12-23T07:25:02.488Z,43.83
2022-12-23T07:27:33.784Z,56.13
2022-12-23T07:30:01.625Z,48.22
2022-12-23T07:32:29.609Z,49.33
2022-12-23T07:34:57.251Z,41.38
2022-12-23T07:37:25.023Z,50.83
2022-12-23T07:40:00.019Z,51.08
2022-12-23T07:42:51.701Z,45.05
2022-12-23T07:45:20.963Z,43.63
2022-12-23T07:47:54.489Z,39.92
2022-12-23T07:50:25.865Z,48.25
2022-12-23T07:52:54.039Z,41.92
2022-12-23T07:55:23.225Z,45.55
2022-12-23T07:57:51.488Z,46.92
2022-12-23T08:00:20.718Z,44.53
2022-12-23T08:02:48.933Z,52.95
2022-12-23T08:05:17.330Z,46.42
2022-12-23T08:07:45.710Z,53.15
2022-12-23T08:10:18.823Z,50.45
2022-12-23T08:12:55.452Z,54.47
2022-12-23T08:15:25.184Z,63.00
2022-12-23T08:17:55.424Z,56.35
2022-12-23T08:20:28.809Z,61.50
2022-12-23T08:22:56.559Z,48.92
2022-12-23T08:25:24.496Z,50.85
2022-12-23T08:27:57.700Z,82.00
2022-12-23T08:30:25.452Z,50.30
2022-12-23T08:32:55.359Z,62.78
2022-12-23T08:35:28.120Z,51.40
2022-12-23T08:37:55.719Z,60.05
2022-12-23T08:40:23.647Z,65.05
2022-12-23T08:42:52.851Z,55.90
2022-12-23T08:45:21.598Z,47.38
2022-12-23T08:47:49.262Z,56.15
2022-12-23T08:50:16.946Z,60.08
2022-12-23T08:52:44.653Z,58.65
2022-12-23T08:55:12.279Z,52.80
2022-12-23T08:57:39.896Z,62.78
2022-12-23T09:00:10.535Z,60.83
2022-12-23T09:02:38.483Z,49.13
2022-12-23T09:05:06.593Z,50.22
2022-12-23T09:07:34.228Z,43.85
2022-12-23T09:10:01.909Z,50.78
2022-12-23T09:13:35.305Z,53.72
2022-12-23T09:29:50.873Z,42.10
2022-12-23T09:34:49.794Z,45.38
2022-12-23T09:37:33.496Z,44.25
2022-12-23T09:42:19.427Z,41.63
2022-12-23T09:45:14.543Z,44.85
2022-12-23T09:51:39.607Z,43.25
2022-12-23T09:54:17.186Z,48.63
2022-12-23T09:56:52.151Z,41.53
2022-12-23T09:59:30.896Z,47.28
2022-12-23T10:02:02.309Z,44.95
2022-12-23T10:04:45.643Z,39.95
2022-12-23T10:07:33.070Z,44.38
2022-12-23T10:10:07.076Z,45.95
2022-12-23T10:12:40.232Z,46.22
2022-12-23T10:15:20.264Z,45.65
2022-12-23T10:17:53.975Z,38.05
2022-12-23T10:20:33.577Z,38.55
2022-12-23T10:23:01.405Z,41.70
2022-12-23T10:25:34.252Z,41.92
2022-12-23T10:28:02.167Z,41.88
2022-12-23T10:30:57.280Z,36.70
2022-12-23T10:33:24.688Z,35.78
2022-12-23T10:36:04.338Z,43.83
2022-12-23T10:38:47.444Z,41.70
2022-12-23T10:41:23.963Z,36.45
2022-12-23T10:44:06.859Z,32.30
2022-12-23T10:46:44.208Z,37.60
2022-12-23T10:49:22.196Z,31.95
2022-12-23T10:51:54.678Z,37.97
2022-12-23T10:54:26.193Z,33.63
2022-12-23T10:56:54.171Z,32.05
2022-12-23T10:59:26.419Z,31.63
2022-12-23T11:02:00.837Z,33.58
2022-12-23T11:04:34.496Z,35.95
2022-12-23T11:07:41.999Z,30.75
2022-12-23T11:09:56.060Z,37.13
2022-12-23T11:12:25.440Z,31.38
2022-12-23T11:14:56.575Z,33.50
2022-12-23T11:17:26.700Z,29.23
2022-12-23T11:20:09.615Z,30.48
2022-12-23T11:22:48.584Z,31.15
2022-12-23T11:25:28.492Z,33.10
2022-12-23T11:27:59.357Z,35.25
2022-12-23T11:30:27.735Z,32.15
2022-12-23T11:32:55.393Z,35.38
2022-12-23T11:35:27.346Z,37.92
2022-12-23T11:37:57.172Z,36.85
2022-12-23T11:40:27.399Z,42.78
2022-12-23T11:42:58.855Z,34.42
2022-12-23T11:45:32.952Z,34.83
2022-12-23T11:48:00.697Z,30.15
2022-12-23T11:50:34.304Z,34.05
2022-12-23T11:53:11.889Z,31.08
2022-12-23T11:55:46.135Z,34.75
2022-12-23T11:58:20.508Z,32.17
2022-12-23T12:00:56.898Z,34.10
2022-12-23T12:03:28.897Z,35.72
2022-12-23T12:06:00.280Z,27.45
2022-12-23T12:08:34.787Z,35.50
2022-12-23T12:11:07.314Z,36.88
2022-12-23T12:13:41.212Z,35.00
2022-12-23T12:16:37.341Z,27.65
2022-12-23T12:19:10.299Z,31.20
2022-12-23T12:21:39.679Z,36.85
2022-12-23T12:24:19.487Z,36.65
2022-12-23T12:26:52.558Z,35.85
2022-12-23T12:29:27.834Z,31.65
2022-12-23T12:31:57.822Z,31.70
2022-12-23T12:34:35.337Z,30.98
2022-12-23T12:37:07.955Z,31.63
2022-12-23T12:39:42.826Z,33.13
2022-12-23T12:42:15.646Z,32.42
2022-12-23T12:44:53.024Z,28.27
2022-12-23T12:47:52.898Z,26.15
2022-12-23T12:50:16.296Z,25.05
2022-12-23T12:52:44.803Z,25.75
2022-12-23T12:55:21.856Z,22.92
2022-12-23T12:57:49.461Z,23.77
2022-12-23T13:00:19.592Z,23.45
2022-12-23T13:03:15.392Z,23.92
2022-12-23T13:05:54.665Z,25.23
2022-12-23T13:08:45.056Z,22.52
2022-12-23T13:11:28.030Z,23.17
2022-12-23T13:14:05.019Z,22.73
2022-12-23T13:16:42.953Z,25.30
2022-12-23T13:19:20.810Z,18.25
2022-12-23T13:21:52.854Z,20.58
2022-12-23T13:24:26.581Z,26.30
2022-12-23T13:27:06.510Z,21.08
2022-12-23T13:29:56.184Z,20.30
2022-12-23T13:32:41.842Z,19.92
2022-12-23T13:35:25.446Z,22.08
2022-12-23T13:38:00.118Z,16.00
2022-12-23T13:40:38.889Z,21.13
2022-12-23T13:43:14.510Z,17.30
2022-12-23T13:45:43.531Z,23.08
2022-12-23T13:48:24.580Z,18.48
2022-12-23T13:50:59.109Z,17.77
2022-12-23T13:53:39.149Z,20.20
2022-12-23T13:56:19.248Z,16.25
2022-12-23T13:58:50.284Z,15.60
2022-12-23T14:01:32.663Z,22.13
2022-12-23T14:04:29.955Z,20.25
2022-12-23T14:06:59.801Z,19.90
2022-12-23T14:09:33.920Z,22.83
2022-12-23T14:12:21.743Z,29.85
2022-12-23T14:15:05.687Z,19.45
2022-12-23T14:17:38.802Z,23.38
2022-12-23T14:20:22.274Z,21.88
2022-12-23T14:23:00.126Z,17.00
2022-12-23T14:25:36.238Z,19.33
2022-12-23T14:28:19.955Z,19.42
2022-12-23T14:30:49.177Z,18.77
2022-12-23T14:33:24.277Z,15.77
2022-12-23T14:35:55.811Z,19.88
2022-12-23T14:38:31.407Z,18.88
2022-12-23T14:41:36.748Z,19.42
2022-12-23T14:44:04.710Z,22.65
2022-12-23T14:46:58.476Z,25.58
2022-12-23T14:49:47.016Z,23.20
2022-12-23T14:53:00.560Z,25.70
2022-12-23T14:55:45.646Z,25.52
2022-12-23T14:58:32.283Z,25.88
2022-12-23T15:01:04.555Z,25.13
2022-12-23T15:03:40.923Z,29.38
2022-12-23T15:06:08.835Z,30.15
2022-12-23T15:08:40.009Z,27.67
2022-12-23T15:11:10.287Z,30.85
2022-12-23T15:13:38.575Z,28.92
2022-12-23T15:16:06.704Z,33.80
2022-12-23T15:18:35.634Z,28.13
2022-12-23T15:21:05.439Z,30.40
2022-12-23T15:23:33.289Z,31.35
2022-12-23T15:26:01.928Z,32.08
2022-12-23T15:28:36.903Z,31.90
2022-12-23T15:31:05.790Z,29.25
2022-12-23T15:34:02.185Z,30.70
2022-12-23T15:36:32.197Z,29.55
2022-12-23T15:39:01.607Z,30.48
2022-12-23T15:41:29.859Z,28.80
2022-12-23T15:44:01.493Z,31.77
2022-12-23T15:46:30.703Z,27.52
2022-12-23T15:48:59.961Z,30.40
2022-12-23T15:52:05.649Z,31.83
2022-12-23T15:54:30.604Z,28.85
2022-12-23T15:57:00.415Z,30.85
2022-12-23T15:59:33.735Z,31.45
2022-12-23T16:02:40.381Z,30.80
2022-12-23T16:05:01.636Z,30.95
2022-12-23T16:07:34.627Z,31.98
2022-12-23T16:10:05.182Z,29.63
2022-12-23T16:12:35.661Z,32.40
2022-12-23T16:15:04.724Z,29.67
2022-12-23T16:17:34.069Z,35.05
2022-12-23T16:20:23.947Z,35.75
2022-12-23T16:22:54.078Z,30.60
2022-12-23T16:25:25.480Z,34.90
2022-12-23T16:27:57.321Z,36.97
2022-12-23T16:30:32.626Z,36.08
2022-12-23T16:33:06.902Z,32.30
2022-12-23T16:35:42.006Z,34.00
2022-12-23T16:38:18.696Z,31.80
2022-12-23T16:40:48.353Z,32.35
2022-12-23T16:43:19.850Z,31.48
2022-12-23T16:45:52.181Z,32.28
2022-12-23T16:48:29.096Z,31.40
2022-12-23T16:50:58.910Z,35.00
2022-12-23T16:53:26.873Z,32.65
2022-12-23T16:56:00.216Z,33.47
2022-12-23T16:58:28.696Z,28.42
2022-12-23T17:00:57.978Z,28.02
2022-12-23T17:03:25.812Z,26.33
2022-12-23T17:05:53.886Z,26.58
2022-12-23T17:08:24.334Z,29.20
2022-12-23T17:10:52.389Z,27.60
2022-12-23T17:13:22.516Z,32.65
2022-12-23T17:15:50.767Z,30.77
2022-12-23T17:18:19.241Z,34.20
2022-12-23T17:20:49.739Z,35.42
2022-12-23T17:23:27.683Z,35.03
2022-12-23T17:25:55.997Z,32.40
2022-12-23T17:28:27.297Z,34.33
2022-12-23T17:30:56.835Z,31.77
2022-12-23T17:33:30.307Z,36.70
2022-12-23T17:35:58.406Z,34.88
2022-12-23T17:38:29.172Z,34.70
2022-12-23T17:40:58.590Z,33.47
2022-12-23T17:43:27.028Z,35.45
2022-12-23T17:45:54.799Z,36.72
2022-12-23T17:48:27.978Z,33.17
2022-12-23T17:50:58.891Z,32.90
2022-12-23T17:53:27.961Z,33.30
2022-12-23T17:55:58.579Z,30.95
2022-12-23T17:58:26.267Z,35.67
2022-12-23T18:00:53.941Z,31.98
2022-12-23T18:03:23.880Z,38.90
2022-12-23T18:06:00.886Z,37.55
2022-12-23T18:08:30.865Z,35.28
2022-12-23T18:10:59.323Z,38.83
2022-12-23T18:13:27.004Z,36.38
2022-12-23T18:15:54.606Z,34.15
2022-12-23T18:18:31.185Z,39.97
2022-12-23T18:21:03.168Z,34.10
2022-12-23T18:23:34.077Z,35.80
2022-12-23T18:26:02.089Z,35.97
2022-12-23T18:28:30.088Z,33.00
2022-12-23T18:30:58.200Z,30.40
2022-12-23T18:33:28.721Z,31.95
2022-12-23T18:35:56.804Z,37.03
2022-12-23T18:38:24.529Z,30.63
2022-12-23T18:40:54.833Z,39.13
2022-12-23T18:43:25.214Z,40.60
2022-12-23T18:45:54.277Z,39.70
2022-12-23T18:48:22.371Z,39.95
2022-12-23T18:50:50.109Z,37.95
2022-12-23T18:53:24.284Z,42.25
2022-12-23T18:55:54.345Z,33.08
2022-12-23T18:58:22.351Z,36.53
2022-12-23T19:00:51.205Z,38.95
2022-12-23T19:03:23.108Z,37.17
2022-12-23T19:05:51.616Z,35.88
2022-12-23T19:08:26.277Z,37.97
2022-12-23T19:11:11.617Z,37.28
2022-12-23T19:13:39.588Z,34.13
2022-12-23T19:16:07.605Z,30.92
2022-12-23T19:18:35.411Z,30.55
2022-12-23T19:21:05.456Z,33.38
2022-12-23T19:23:33.311Z,32.67
2022-12-23T19:26:01.073Z,32.28
2022-12-23T19:28:30.447Z,36.67
2022-12-23T19:30:58.383Z,37.83
2022-12-23T19:33:26.218Z,33.28
2022-12-23T19:35:54.307Z,33.42
2022-12-23T19:38:22.311Z,39.95
2022-12-23T19:40:57.572Z,37.88
2022-12-23T19:43:25.314Z,47.92
2022-12-23T19:45:59.007Z,37.35
2022-12-23T19:48:26.779Z,41.03
2022-12-23T19:50:59.023Z,37.55
2022-12-23T19:53:26.963Z,32.15
2022-12-23T19:55:59.266Z,44.42
2022-12-23T19:58:27.979Z,38.58
2022-12-23T20:01:08.089Z,39.80
2022-12-23T20:03:36.261Z,43.22
2022-12-23T20:06:05.584Z,39.85
2022-12-23T20:08:34.056Z,42.38
2022-12-23T20:11:07.286Z,35.88
2022-12-23T20:13:35.462Z,37.85
2022-12-23T20:16:04.289Z,44.45
2022-12-23T20:18:33.335Z,41.20
2022-12-23T20:21:01.697Z,38.65
2022-12-23T20:23:30.001Z,39.30
2022-12-23T20:25:57.930Z,37.35
2022-12-23T20:28:26.154Z,40.55
2022-12-23T20:31:00.259Z,42.30
2022-12-23T20:33:28.247Z,37.67
2022-12-23T20:35:57.392Z,41.85
2022-12-23T20:38:25.351Z,40.10
2022-12-23T20:40:53.322Z,41.65
2022-12-23T20:43:21.068Z,37.97
2022-12-23T20:45:51.084Z,33.78
2022-12-23T20:48:21.103Z,36.72
2022-12-23T20:50:49.561Z,41.20
2022-12-23T20:53:18.800Z,36.15
2022-12-23T20:55:46.472Z,36.45
2022-12-23T20:58:32.047Z,36.53
2022-12-23T21:01:09.063Z,32.28
2022-12-23T21:03:36.960Z,35.97
2022-12-23T21:06:05.460Z,31.85
2022-12-23T21:08:35.279Z,27.13
2022-12-23T21:11:03.484Z,32.85
2022-12-23T21:13:31.329Z,31.63
2022-12-23T21:16:01.693Z,36.35
2022-12-23T21:18:29.373Z,34.45
2022-12-23T21:21:00.081Z,29.25
2022-12-23T21:23:27.928Z,28.67
2022-12-23T21:26:12.590Z,33.58
2022-12-23T21:28:40.908Z,29.20
2022-12-23T21:31:09.057Z,26.30
2022-12-23T21:33:38.176Z,33.42
2022-12-23T21:36:07.342Z,30.35
2022-12-23T21:38:37.345Z,30.33
2022-12-23T21:41:09.679Z,34.20
2022-12-23T21:43:37.699Z,40.03
2022-12-23T21:46:07.590Z,31.63
2022-12-23T21:48:37.772Z,28.65
2022-12-23T21:51:08.097Z,31.75
2022-12-23T21:53:36.839Z,32.78
2022-12-23T21:56:06.327Z,33.85
2022-12-23T21:58:35.601Z,32.30
2022-12-23T22:01:07.586Z,31.27
2022-12-23T22:03:36.183Z,31.95
2022-12-23T22:06:10.542Z,34.45
2022-12-23T22:08:39.339Z,33.35
2022-12-23T22:11:08.628Z,33.35
2022-12-23T22:13:38.086Z,35.45
2022-12-23T22:16:09.982Z,33.05
2022-12-23T22:18:38.220Z,30.98
2022-12-23T22:21:06.615Z,34.85
2022-12-23T22:23:34.677Z,32.03
2022-12-23T22:26:02.267Z,30.15
2022-12-23T22:28:31.692Z,31.85
2022-12-23T22:31:03.621Z,32.53
2022-12-23T22:33:32.280Z,29.75
2022-12-23T22:35:59.907Z,26.15
2022-12-23T22:38:27.747Z,31.90
2022-12-23T22:40:55.279Z,28.35
2022-12-23T22:43:22.821Z,31.05
2022-12-23T22:45:56.540Z,30.63
2022-12-23T22:48:26.264Z,32.97
2022-12-23T22:51:02.655Z,31.90
2022-12-23T22:53:30.693Z,34.78
2022-12-23T22:55:59.392Z,36.08
2022-12-23T22:58:27.736Z,35.28
2022-12-23T23:00:55.428Z,30.77
2022-12-23T23:03:23.226Z,36.67
2022-12-23T23:05:59.916Z,32.35
2022-12-23T23:08:28.366Z,35.78
2022-12-23T23:10:57.597Z,39.67
2022-12-23T23:13:25.727Z,31.30
2022-12-23T23:15:53.262Z,34.45
2022-12-23T23:18:20.893Z,32.42
2022-12-23T23:20:48.829Z,35.60
2022-12-23T23:23:18.079Z,34.03
2022-12-23T23:25:45.754Z,31.38
2022-12-23T23:28:13.599Z,32.42
2022-12-23T23:30:41.823Z,34.08
2022-12-23T23:33:10.621Z,31.70
2022-12-23T23:35:38.347Z,30.80
2022-12-23T23:38:05.899Z,31.65
2022-12-23T23:40:34.789Z,33.08
2022-12-23T23:43:02.452Z,31.38
2022-12-23T23:45:30.163Z,35.10
2022-12-23T23:47:57.855Z,36.20
2022-12-23T23:50:25.485Z,35.72
2022-12-23T23:52:53.009Z,31.58
2022-12-23T23:55:20.487Z,28.90
2022-12-23T23:57:49.335Z,34.30
